Time;durP1;ratioP1;P1;durP2;ratioP2;P2;SDS_P1;SDS_P2;PMS_P1;PMS_P2;Temp;Humidity;BMP_temperature;BMP_pressure;BME280_temperature;BME280_humidity;BME280_pressure;Samples;Min_cycle;Max_cycle;Signal;HPM_P1;HPM_P2
2023/04/14 00:00:09;;;;;;;11.48;2.80;;;10.00;99.90;;;;;;4935894;29;20036;-88
2023/04/14 00:02:35;;;;;;;12.55;2.97;;;10.10;99.90;;;;;;4936038;29;20194;-88
2023/04/14 00:05:00;;;;;;;13.38;3.50;;;10.10;99.90;;;;;;4936466;29;20108;-87
2023/04/14 00:07:26;;;;;;;12.35;3.22;;;10.20;99.90;;;;;;4936161;29;20063;-88
2023/04/14 00:09:51;;;;;;;8.43;2.70;;;10.20;99.90;;;;;;4936709;29;20036;-87
2023/04/14 00:12:17;;;;;;;9.95;2.88;;;10.20;99.90;;;;;;4936170;29;20020;-90
2023/04/14 00:14:42;;;;;;;17.45;4.65;;;11.20;99.90;;;;;;4936546;29;20032;-89
2023/04/14 00:17:08;;;;;;;15.00;4.07;;;10.10;99.90;;;;;;4936342;29;20027;-88
2023/04/14 00:19:34;;;;;;;8.45;2.88;;;10.00;99.90;;;;;;4935907;29;20054;-89
2023/04/14 00:22:00;;;;;;;10.95;2.85;;;9.90;99.90;;;;;;4938745;29;20027;-88
2023/04/14 00:24:25;;;;;;;13.63;2.80;;;9.90;99.90;;;;;;4936506;29;20023;-89
2023/04/14 00:26:51;;;;;;;11.32;2.53;;;9.70;99.90;;;;;;4935518;29;20403;-89
2023/04/14 00:29:16;;;;;;;10.68;2.92;;;9.50;99.90;;;;;;4936022;29;20032;-89
2023/04/14 00:31:42;;;;;;;13.10;3.72;;;9.50;99.90;;;;;;4936347;29;20030;-89
2023/04/14 00:34:07;;;;;;;7.68;3.40;;;9.50;99.90;;;;;;4935278;29;20030;-89
2023/04/14 00:36:33;;;;;;;12.93;4.63;;;9.40;99.90;;;;;;4936641;29;20028;-89
2023/04/14 00:38:59;;;;;;;8.05;3.53;;;9.40;99.90;;;;;;4936318;29;20047;-89
2023/04/14 00:41:25;;;;;;;16.20;3.70;;;9.40;99.90;;;;;;4936144;29;20031;-90
2023/04/14 00:43:54;;;;;;;10.60;3.80;;;9.30;99.90;;;;;;4936106;29;20119;-90
2023/04/14 00:46:20;;;;;;;12.52;3.40;;;9.20;99.90;;;;;;4935841;29;20543;-89
2023/04/14 00:48:46;;;;;;;13.57;3.80;;;9.20;99.90;;;;;;4935447;29;20032;-90
2023/04/14 00:51:12;;;;;;;10.35;2.97;;;9.40;99.90;;;;;;4936087;29;20428;-91
2023/04/14 00:53:39;;;;;;;11.05;3.63;;;9.40;99.90;;;;;;4936109;29;20031;-90
2023/04/14 00:56:06;;;;;;;12.80;3.97;;;9.40;99.90;;;;;;4935173;29;20028;-89
2023/04/14 00:58:31;;;;;;;8.40;3.00;;;9.30;99.90;;;;;;4936008;29;20046;-91
2023/04/14 01:00:57;;;;;;;9.25;3.25;;;9.20;99.90;;;;;;4936241;29;20032;-90
2023/04/14 01:03:23;;;;;;;17.50;3.72;;;9.20;99.90;;;;;;4934815;29;20571;-90
2023/04/14 01:05:49;;;;;;;10.40;3.22;;;9.20;99.90;;;;;;4936125;29;20114;-89
2023/04/14 01:08:16;;;;;;;9.30;3.63;;;9.20;99.90;;;;;;4934879;29;20063;-88
2023/04/14 01:11:07;;;;;;;10.10;3.40;;;9.20;99.90;;;;;;4935287;29;20055;-89
2023/04/14 01:13:49;;;;;;;10.95;3.83;;;9.30;99.90;;;;;;4921990;29;20098;-89
2023/04/14 01:16:27;;;;;;;10.32;4.00;;;9.30;99.90;;;;;;4934728;29;20031;-89
2023/04/14 01:18:58;;;;;;;11.63;3.22;;;9.30;99.90;;;;;;4935573;29;20045;-90
2023/04/14 01:21:27;;;;;;;;;;;9.30;99.90;;;;;;4935872;29;20028;-89
2023/04/14 01:24:12;;;;;;;13.45;3.45;;;9.30;99.90;;;;;;4934999;29;20306;-88
2023/04/14 01:26:38;;;;;;;11.93;3.20;;;9.30;99.90;;;;;;4935511;29;20034;-88
2023/04/14 01:29:21;;;;;;;7.05;3.05;;;9.30;99.90;;;;;;4935268;29;20028;-88
2023/04/14 01:31:52;;;;;;;13.13;3.70;;;9.20;99.90;;;;;;4935312;29;20023;-90
2023/04/14 01:34:20;;;;;;;10.50;3.35;;;9.30;99.90;;;;;;4934839;29;20020;-90
2023/04/14 01:36:56;;;;;;;10.80;3.30;;;9.30;99.90;;;;;;4940434;29;20435;-89
2023/04/14 01:39:26;;;;;;;16.42;3.42;;;9.20;99.90;;;;;;4935094;29;20040;-90
2023/04/14 01:41:57;;;;;;;12.02;3.47;;;9.20;99.90;;;;;;4935619;29;20028;-90
2023/04/14 01:44:24;;;;;;;8.75;2.95;;;9.30;99.90;;;;;;4935052;29;20043;-90
2023/04/14 01:46:55;;;;;;;9.73;2.83;;;9.40;99.90;;;;;;4935502;29;20083;-89
2023/04/14 01:49:22;;;;;;;13.43;3.92;;;9.50;99.90;;;;;;4934932;29;20036;-90
2023/04/14 01:51:49;;;;;;;12.25;3.35;;;9.50;99.90;;;;;;4935297;29;20023;-90
2023/04/14 01:54:17;;;;;;;15.40;3.60;;;9.40;99.90;;;;;;4934969;29;20027;-91
2023/04/14 01:56:43;;;;;;;12.63;2.97;;;9.40;99.90;;;;;;4935715;29;20024;-90
2023/04/14 01:59:10;;;;;;;9.45;3.17;;;9.50;99.90;;;;;;4936347;29;20036;-89
2023/04/14 02:01:39;;;;;;;8.68;3.40;;;9.40;99.90;;;;;;4939404;29;20031;-90
2023/04/14 02:04:05;;;;;;;15.38;4.18;;;9.40;99.90;;;;;;4939182;29;20039;-90
2023/04/14 02:06:33;;;;;;;10.43;3.13;;;9.50;99.90;;;;;;4938728;29;20023;-90
2023/04/14 02:09:00;;;;;;;7.93;3.67;;;9.40;99.90;;;;;;4939242;29;20070;-90
2023/04/14 02:11:28;;;;;;;8.80;3.25;;;9.50;99.90;;;;;;4939069;29;20027;-90
2023/04/14 02:13:55;;;;;;;15.13;4.25;;;9.50;99.90;;;;;;4938543;29;20062;-90
2023/04/14 02:16:22;;;;;;;10.40;3.15;;;9.50;99.90;;;;;;4938875;29;20054;-90
2023/04/14 02:18:49;;;;;;;9.77;4.10;;;9.50;99.90;;;;;;4939179;29;20365;-90
2023/04/14 02:21:17;;;;;;;7.53;3.55;;;9.60;99.90;;;;;;4961662;23;20142;-90
2023/04/14 02:23:42;;;;;;;10.73;4.20;;;9.40;99.90;;;;;;4958199;29;20042;-90
2023/04/14 02:26:14;;;;;;;12.30;4.15;;;9.40;99.90;;;;;;4957381;29;20023;-90
2023/04/14 02:29:10;;;;;;;11.02;3.47;;;9.40;99.90;;;;;;4959245;29;20102;-89
2023/04/14 02:31:41;;;;;;;15.07;5.22;;;9.50;99.90;;;;;;4958069;29;20435;-90
2023/04/14 02:34:08;;;;;;;9.77;3.83;;;9.50;99.90;;;;;;4956899;29;20023;-89
2023/04/14 02:36:41;;;;;;;12.68;3.80;;;9.60;99.90;;;;;;4961005;29;20035;-88
2023/04/14 02:39:16;;;;;;;12.07;4.30;;;9.70;99.90;;;;;;4957979;29;20031;-88
2023/04/14 02:41:44;;;;;;;9.10;3.63;;;9.70;99.90;;;;;;4957380;29;20030;-89
2023/04/14 02:44:23;;;;;;;13.70;4.18;;;9.60;99.90;;;;;;4957561;29;20035;-90
2023/04/14 02:47:02;;;;;;;8.65;4.05;;;9.60;99.90;;;;;;4957641;29;20031;-89
2023/04/14 02:49:36;;;;;;;9.27;4.28;;;9.60;99.90;;;;;;4957516;29;20384;-89
2023/04/14 02:52:06;;;;;;;7.75;3.88;;;9.50;99.90;;;;;;4957394;29;20031;-89
2023/04/14 02:54:37;;;;;;;11.20;4.82;;;9.50;99.90;;;;;;4957060;29;20031;-89
2023/04/14 02:57:03;;;;;;;15.43;4.80;;;9.30;99.90;;;;;;4957223;29;20137;-89
2023/04/14 02:59:31;;;;;;;18.33;4.78;;;9.30;99.90;;;;;;4956979;29;20039;-88
2023/04/14 03:02:03;;;;;;;12.48;4.32;;;9.40;99.90;;;;;;4956722;29;20035;-88
2023/04/14 03:04:33;;;;;;;11.98;4.53;;;9.60;99.90;;;;;;4957235;29;20360;-88
2023/04/14 03:07:06;;;;;;;15.77;5.03;;;9.60;99.90;;;;;;4957369;29;20035;-89
2023/04/14 03:09:32;;;;;;;12.82;4.75;;;10.70;99.90;;;;;;4956579;28;20502;-89
2023/04/14 03:11:59;;;;;;;13.38;5.28;;;9.60;99.90;;;;;;4956266;29;20020;-88
2023/04/14 03:14:26;;;;;;;13.65;4.70;;;9.60;99.90;;;;;;4956859;29;20082;-89
2023/04/14 03:16:53;;;;;;;9.57;3.97;;;9.60;99.90;;;;;;4956426;29;20033;-89
2023/04/14 03:19:21;;;;;;;10.55;4.18;;;9.50;99.90;;;;;;4956841;28;20073;-90
2023/04/14 03:21:48;;;;;;;13.05;4.82;;;9.40;99.90;;;;;;4957229;29;20045;-89
2023/04/14 03:24:18;;;;;;;13.20;4.55;;;9.30;99.90;;;;;;4956201;29;20039;-89
2023/04/14 03:26:46;;;;;;;13.85;5.30;;;9.30;99.90;;;;;;4956861;29;20058;-90
2023/04/14 03:29:14;;;;;;;10.82;4.30;;;9.30;99.90;;;;;;4956686;29;20035;-89
2023/04/14 03:31:43;;;;;;;15.93;5.35;;;9.20;99.90;;;;;;4956773;29;20033;-89
2023/04/14 03:34:09;;;;;;;12.55;4.65;;;9.20;99.90;;;;;;4956613;29;20019;-89
2023/04/14 03:36:35;;;;;;;8.13;4.25;;;9.20;99.90;;;;;;4955625;29;20063;-88
2023/04/14 03:39:04;;;;;;;17.30;4.85;;;9.10;99.90;;;;;;4956071;29;20506;-88
2023/04/14 03:41:34;;;;;;;13.98;6.15;;;9.10;99.90;;;;;;4956520;29;20538;-89
2023/04/14 03:44:02;;;;;;;10.98;5.25;;;9.00;99.90;;;;;;4955533;29;20391;-88
2023/04/14 03:46:29;;;;;;;14.77;4.40;;;9.00;99.90;;;;;;4956707;29;20484;-89
2023/04/14 03:48:56;;;;;;;13.40;4.72;;;9.00;99.90;;;;;;4956528;29;20114;-88
2023/04/14 03:51:26;;;;;;;12.93;4.95;;;8.90;99.90;;;;;;4955049;29;20030;-89
2023/04/14 03:53:54;;;;;;;10.93;4.60;;;8.90;99.90;;;;;;4956438;29;20039;-90
2023/04/14 03:56:21;;;;;;;12.10;5.47;;;8.80;99.90;;;;;;4957575;29;20098;-88
2023/04/14 03:58:51;;;;;;;10.00;5.05;;;8.80;99.90;;;;;;4956011;29;20031;-89
2023/04/14 04:01:18;;;;;;;11.70;4.35;;;8.70;99.90;;;;;;4956152;29;20027;-88
2023/04/14 04:03:45;;;;;;;15.77;4.75;;;8.70;99.90;;;;;;4955877;29;20464;-89
2023/04/14 04:06:11;;;;;;;8.13;4.72;;;8.70;99.90;;;;;;4955057;29;20495;-88
2023/04/14 04:08:39;;;;;;;11.60;5.30;;;8.60;99.90;;;;;;4955730;29;20191;-88
2023/04/14 04:11:10;;;;;;;16.58;5.03;;;8.60;99.90;;;;;;4955848;29;20031;-89
2023/04/14 04:13:36;;;;;;;13.27;5.57;;;8.60;99.90;;;;;;4955276;29;20035;-89
2023/04/14 04:16:05;;;;;;;10.20;4.72;;;8.40;99.90;;;;;;4955156;29;20070;-88
2023/04/14 04:18:33;;;;;;;10.60;5.03;;;8.50;99.90;;;;;;4954327;29;20122;-88
2023/04/14 04:21:00;;;;;;;9.85;4.30;;;8.40;99.90;;;;;;4955730;28;20132;-89
2023/04/14 04:23:28;;;;;;;8.23;4.10;;;8.40;99.90;;;;;;4955608;29;20061;-88
2023/04/14 04:25:54;;;;;;;12.05;4.53;;;8.40;99.90;;;;;;4955592;29;20119;-89
2023/04/14 04:28:20;;;;;;;10.63;3.88;;;8.40;99.90;;;;;;4955732;29;20027;-89
2023/04/14 04:30:47;;;;;;;13.13;4.25;;;8.30;99.90;;;;;;4955728;29;20545;-89
2023/04/14 04:33:14;;;;;;;13.65;4.90;;;8.30;99.90;;;;;;4954906;29;20042;-89
2023/04/14 04:35:41;;;;;;;11.48;5.00;;;8.10;99.90;;;;;;4955786;29;20031;-90
2023/04/14 04:38:10;;;;;;;12.95;4.25;;;8.30;99.90;;;;;;4956535;29;20062;-90
2023/04/14 04:40:37;;;;;;;11.07;4.35;;;8.30;99.90;;;;;;4954708;29;20118;-88
2023/04/14 04:43:03;;;;;;;10.77;4.28;;;8.30;99.90;;;;;;4955440;29;20035;-89
2023/04/14 04:45:44;;;;;;;10.80;3.90;;;8.30;99.90;;;;;;4955696;29;20487;-89
2023/04/14 04:48:10;;;;;;;9.07;3.88;;;8.30;99.90;;;;;;4954472;29;20479;-89
2023/04/14 04:50:35;;;;;;;9.15;4.60;;;8.40;99.90;;;;;;4955631;29;20034;-89
2023/04/14 04:53:01;;;;;;;11.18;4.10;;;8.40;99.90;;;;;;4955310;29;20027;-89
2023/04/14 04:55:26;;;;;;;12.45;4.10;;;8.40;99.90;;;;;;4954795;29;20023;-90
2023/04/14 04:57:52;;;;;;;9.48;3.97;;;8.20;99.90;;;;;;4955706;29;20118;-90
2023/04/14 05:00:18;;;;;;;13.02;4.50;;;8.20;99.90;;;;;;4954986;29;20041;-90
2023/04/14 05:02:43;;;;;;;15.82;4.68;;;8.10;99.90;;;;;;4954706;29;20026;-90
2023/04/14 05:05:09;;;;;;;14.43;4.97;;;8.10;99.90;;;;;;4954489;28;20082;-89
2023/04/14 05:07:34;;;;;;;7.35;4.57;;;8.10;99.90;;;;;;4939223;28;20086;-90
2023/04/14 05:10:00;;;;;;;13.20;4.25;;;8.10;99.90;;;;;;4952088;28;20478;-88
2023/04/14 05:12:26;;;;;;;9.38;4.70;;;8.10;99.90;;;;;;4974809;28;20071;-89
2023/04/14 05:14:51;;;;;;;14.65;4.15;;;8.10;99.90;;;;;;4971501;28;20561;-88
2023/04/14 05:17:17;;;;;;;10.68;3.88;;;8.10;99.90;;;;;;4973895;28;20019;-89
2023/04/14 05:19:42;;;;;;;7.88;3.92;;;8.20;99.90;;;;;;4974041;28;20046;-89
2023/04/14 05:22:07;;;;;;;9.30;4.47;;;8.10;99.90;;;;;;4973407;28;20019;-89
2023/04/14 05:24:33;;;;;;;8.93;4.70;;;8.10;99.90;;;;;;4974351;28;20027;-89
2023/04/14 05:27:00;;;;;;;18.55;6.05;;;8.10;99.90;;;;;;4974270;28;20029;-90
2023/04/14 05:29:25;;;;;;;12.00;4.78;;;8.20;99.90;;;;;;4963508;28;20036;-90
2023/04/14 05:31:51;;;;;;;10.35;4.47;;;8.20;99.90;;;;;;4954505;29;20028;-87
2023/04/14 05:34:16;;;;;;;12.52;4.35;;;8.20;99.90;;;;;;4953712;28;20115;-89
2023/04/14 05:36:42;;;;;;;9.50;3.95;;;8.10;99.90;;;;;;4954054;29;20067;-87
2023/04/14 05:39:08;;;;;;;11.32;4.22;;;8.20;99.90;;;;;;4954582;29;20114;-86
2023/04/14 05:41:33;;;;;;;10.85;4.03;;;8.20;99.90;;;;;;4954584;29;20035;-85
2023/04/14 05:43:59;;;;;;;10.77;4.60;;;8.20;99.90;;;;;;4952304;29;20578;-89
2023/04/14 05:46:25;;;;;;;9.05;4.13;;;8.20;99.90;;;;;;4959924;28;20023;-87
2023/04/14 05:48:51;;;;;;;12.75;4.30;;;8.20;99.90;;;;;;4965235;28;20030;-88
2023/04/14 05:51:17;;;;;;;11.43;4.47;;;8.10;99.90;;;;;;4957870;28;20088;-88
2023/04/14 05:53:42;;;;;;;13.63;4.18;;;8.20;99.90;;;;;;4959150;28;20416;-88
2023/04/14 05:56:10;;;;;;;10.18;3.60;;;8.10;99.90;;;;;;4957483;28;20110;-88
2023/04/14 05:58:36;;;;;;;8.93;3.88;;;8.10;99.90;;;;;;4957549;28;20035;-88
2023/04/14 06:01:02;;;;;;;23.60;4.38;;;8.20;99.90;;;;;;4965139;28;20122;-87
2023/04/14 06:03:29;;;;;;;8.98;4.18;;;8.20;99.90;;;;;;4957780;28;20070;-88
2023/04/14 06:05:54;;;;;;;9.63;3.95;;;8.10;99.90;;;;;;4965073;28;20030;-87
2023/04/14 06:08:20;;;;;;;12.05;4.35;;;8.10;99.90;;;;;;4967193;28;20370;-86
2023/04/14 06:10:45;;;;;;;11.73;4.15;;;8.10;99.90;;;;;;4966901;28;20042;-86
2023/04/14 06:13:11;;;;;;;8.45;4.03;;;8.10;99.90;;;;;;4966499;28;20028;-87
2023/04/14 06:15:36;;;;;;;14.43;5.38;;;8.10;99.90;;;;;;4953190;28;20046;-86
2023/04/14 06:20:51;;;;;;;11.00;4.80;;;8.20;99.90;;;;;;5745439;23;20059;-87
2023/04/14 06:23:16;;;;;;;12.45;4.75;;;8.20;99.90;;;;;;4952685;29;20482;-85
2023/04/14 06:25:42;;;;;;;8.98;4.00;;;8.10;99.90;;;;;;4953579;29;20027;-86
2023/04/14 06:28:08;;;;;;;7.57;3.95;;;8.10;99.90;;;;;;4952990;29;20459;-87
2023/04/14 06:30:34;;;;;;;20.10;4.82;;;8.20;99.90;;;;;;4953651;29;20031;-87
2023/04/14 06:33:03;;;;;;;19.40;4.20;;;8.30;99.90;;;;;;4953890;29;20023;-86
2023/04/14 06:35:33;;;;;;;16.73;4.97;;;8.40;99.90;;;;;;4955198;29;20035;-87
2023/04/14 06:38:02;;;;;;;11.43;3.75;;;8.50;99.90;;;;;;4955025;29;20035;-87
2023/04/14 06:40:28;;;;;;;12.02;4.70;;;8.70;99.90;;;;;;4953934;29;20035;-87
2023/04/14 06:42:53;;;;;;;12.98;4.22;;;8.50;99.90;;;;;;4953006;29;20031;-87
2023/04/14 06:45:19;;;;;;;13.23;4.47;;;8.50;99.90;;;;;;4955069;28;20397;-87
2023/04/14 06:47:44;;;;;;;7.75;3.92;;;8.50;99.90;;;;;;4957134;29;20034;-86
2023/04/14 06:50:11;;;;;;;19.40;3.90;;;8.50;99.90;;;;;;4956523;29;20134;-86
2023/04/14 06:52:37;;;;;;;13.35;3.58;;;8.60;99.90;;;;;;4956239;29;20102;-86
2023/04/14 06:55:02;;;;;;;12.38;3.58;;;8.60;99.90;;;;;;4955889;29;20239;-85
2023/04/14 06:57:28;;;;;;;9.73;3.22;;;8.50;99.90;;;;;;4955243;29;20034;-86
2023/04/14 06:59:53;;;;;;;9.30;3.90;;;8.70;99.90;;;;;;4956466;29;20352;-87
2023/04/14 07:02:19;;;;;;;8.77;4.32;;;8.70;99.90;;;;;;4956295;29;20031;-86
2023/04/14 07:04:44;;;;;;;9.02;4.22;;;8.70;99.90;;;;;;4956624;29;20379;-86
2023/04/14 07:07:10;;;;;;;15.32;4.22;;;8.70;99.90;;;;;;4956577;29;20050;-86
2023/04/14 07:09:36;;;;;;;10.50;4.60;;;8.60;99.90;;;;;;4955905;29;20031;-86
2023/04/14 07:12:01;;;;;;;8.60;4.47;;;8.60;99.90;;;;;;4956710;29;20020;-87
2023/04/14 07:14:31;;;;;;;9.02;4.05;;;8.80;99.90;;;;;;4956163;29;20474;-86
2023/04/14 07:16:56;;;;;;;10.20;4.25;;;8.90;99.90;;;;;;4956149;29;20561;-86
2023/04/14 07:19:22;;;;;;;6.82;3.70;;;9.00;99.90;;;;;;4956240;29;20114;-86
2023/04/14 07:21:47;;;;;;;8.90;3.90;;;9.00;99.90;;;;;;4956243;28;20039;-86
2023/04/14 07:24:13;;;;;;;9.95;3.75;;;9.10;99.90;;;;;;4955386;29;20054;-88
2023/04/14 07:26:38;;;;;;;9.95;3.08;;;9.20;99.90;;;;;;4956127;29;20062;-87
2023/04/14 07:29:04;;;;;;;7.13;3.33;;;9.20;99.90;;;;;;4955726;29;20031;-86
2023/04/14 07:31:34;;;;;;;9.00;3.08;;;9.30;99.90;;;;;;4955943;29;20031;-86
2023/04/14 07:34:00;;;;;;;7.43;3.08;;;9.30;99.90;;;;;;4955800;29;20027;-86
2023/04/14 07:36:25;;;;;;;6.82;2.80;;;9.30;99.90;;;;;;4956145;29;20402;-86
2023/04/14 07:38:51;;;;;;;7.32;3.10;;;9.30;99.90;;;;;;4955503;29;20570;-85
2023/04/14 07:41:17;;;;;;;8.70;3.00;;;9.40;99.90;;;;;;4955483;29;20075;-87
2023/04/14 07:43:42;;;;;;;4.80;2.40;;;9.50;99.90;;;;;;4955781;29;20073;-86
2023/04/14 07:46:08;;;;;;;5.50;3.28;;;9.60;99.90;;;;;;4955410;29;20031;-86
2023/04/14 07:48:35;;;;;;;5.68;2.78;;;9.60;99.90;;;;;;4956249;29;20368;-87
2023/04/14 07:51:03;;;;;;;3.90;2.35;;;9.70;99.90;;;;;;4956346;29;20106;-87
2023/04/14 07:53:29;;;;;;;9.80;2.65;;;9.70;99.90;;;;;;4955767;29;20038;-87
2023/04/14 07:55:54;;;;;;;8.43;3.38;;;9.70;99.90;;;;;;4955789;28;20147;-86
2023/04/14 07:58:20;;;;;;;9.57;3.15;;;9.80;99.90;;;;;;4958175;29;20042;-87
2023/04/14 08:00:45;;;;;;;3.28;2.25;;;9.90;99.90;;;;;;4960833;28;20051;-89
2023/04/14 08:03:12;;;;;;;6.13;2.55;;;9.90;99.90;;;;;;4955721;29;20467;-88
2023/04/14 08:05:37;;;;;;;4.05;2.25;;;10.00;99.90;;;;;;4956290;29;20027;-88
2023/04/14 08:08:03;;;;;;;5.65;2.40;;;10.00;99.90;;;;;;4956035;29;20529;-89
2023/04/14 08:10:29;;;;;;;7.15;2.80;;;10.00;99.90;;;;;;4955825;29;20089;-88
2023/04/14 08:12:54;;;;;;;5.38;2.05;;;10.10;99.90;;;;;;4956405;29;20434;-86
2023/04/14 08:15:20;;;;;;;7.07;2.03;;;10.40;99.90;;;;;;4954922;29;20023;-87
2023/04/14 08:17:46;;;;;;;3.35;2.13;;;10.10;99.90;;;;;;4956160;29;20390;-91
2023/04/14 08:20:32;;;;;;;6.15;1.80;;;10.10;99.90;;;;;;4957023;29;20090;-91
2023/04/14 08:23:01;;;;;;;6.05;2.83;;;10.10;99.90;;;;;;4940683;29;20090;-92
2023/04/14 08:25:39;;;;;;;6.07;2.58;;;10.10;99.90;;;;;;4957576;29;20038;-89
2023/04/14 08:28:05;;;;;;;4.18;2.45;;;11.00;99.90;;;;;;4956003;29;20032;-90
2023/04/14 08:30:48;;;;;;;10.15;2.47;;;11.10;99.90;;;;;;4957144;29;20547;-91
2023/04/14 08:33:19;;;;;;;6.93;2.20;;;10.30;99.90;;;;;;4956571;29;20027;-94
2023/04/14 08:35:45;;;;;;;17.80;2.78;;;11.20;99.90;;;;;;4956819;29;20027;-92
2023/04/14 08:38:30;;;;;;;5.25;2.53;;;10.40;99.90;;;;;;4955881;29;20107;-88
2023/04/14 08:41:08;;;;;;;7.68;2.17;;;10.50;99.90;;;;;;4954955;29;20079;-88
2023/04/14 08:43:34;;;;;;;10.23;2.05;;;10.50;99.90;;;;;;4955649;29;20375;-89
2023/04/14 08:46:19;;;;;;;6.32;1.65;;;10.50;99.90;;;;;;4954594;29;20054;-89
2023/04/14 08:48:48;;;;;;;4.75;1.90;;;10.50;99.90;;;;;;4936330;29;20036;-89
2023/04/14 08:51:22;;;;;;;8.48;2.03;;;10.50;99.90;;;;;;4936473;29;20026;-89
2023/04/14 08:54:08;;;;;;;6.45;2.08;;;10.60;99.90;;;;;;4936183;29;20027;-89
2023/04/14 08:56:50;;;;;;;6.45;2.15;;;11.30;99.90;;;;;;4935829;29;20031;-88
2023/04/14 08:59:27;;;;;;;9.90;2.17;;;11.50;99.90;;;;;;4935442;29;20049;-90
2023/04/14 09:02:12;;;;;;;5.47;2.28;;;10.50;99.90;;;;;;4936298;29;20024;-89
2023/04/14 09:04:55;;;;;;;5.40;2.30;;;11.30;99.90;;;;;;4935970;29;20035;-88
2023/04/14 09:07:41;;;;;;;7.00;2.05;;;10.70;99.90;;;;;;4949646;29;20039;-87
2023/04/14 09:10:11;;;;;;;10.05;3.97;;;10.80;99.90;;;;;;4954570;29;20054;-90
2023/04/14 09:12:55;;;;;;;6.65;2.17;;;10.80;99.90;;;;;;4955950;29;20142;-89
2023/04/14 09:15:30;;;;;;;8.60;2.33;;;10.80;99.90;;;;;;4954903;29;20106;-90
2023/04/14 09:17:56;;;;;;;6.45;2.25;;;11.70;99.90;;;;;;4954944;29;20038;-90
2023/04/14 09:20:40;;;;;;;9.23;2.90;;;10.90;99.90;;;;;;4957518;29;20065;-88
2023/04/14 09:23:08;;;;;;;6.63;1.98;;;10.40;99.90;;;;;;4943115;29;20035;-90
2023/04/14 09:25:43;;;;;;;7.55;2.58;;;12.00;99.90;;;;;;5001335;23;20082;-89
2023/04/14 09:28:09;;;;;;;6.35;3.40;;;9.90;99.90;;;;;;4954997;29;20024;-87
2023/04/14 09:30:38;;;;;;;5.82;2.35;;;11.00;99.90;;;;;;4955222;29;20024;-89
2023/04/14 09:33:26;;;;;;;9.23;3.28;;;12.00;99.90;;;;;;4955093;29;20074;-89
2023/04/14 09:35:53;;;;;;;8.05;1.75;;;11.10;99.90;;;;;;4955628;29;20035;-89
2023/04/14 09:38:33;;;;;;;16.45;2.10;;;12.00;99.90;;;;;;4955093;29;20027;-90
2023/04/14 09:41:00;;;;;;;7.53;1.73;;;12.40;99.90;;;;;;4955891;29;20360;-89
2023/04/14 09:43:45;;;;;;;8.13;2.10;;;11.30;99.90;;;;;;4955422;29;20102;-90
2023/04/14 09:46:11;;;;;;;8.80;2.22;;;10.80;99.90;;;;;;4898882;29;20036;-90
2023/04/14 09:48:59;;;;;;;5.50;1.60;;;11.90;99.90;;;;;;4955386;29;20082;-90
2023/04/14 09:51:29;;;;;;;7.68;1.80;;;11.50;99.90;;;;;;4955584;29;20558;-90
2023/04/14 09:54:25;;;;;;;8.40;1.83;;;11.60;99.90;;;;;;4954359;29;20032;-90
2023/04/14 09:57:09;;;;;;;9.32;1.73;;;11.60;99.90;;;;;;4954988;29;20102;-89
2023/04/14 09:59:36;;;;;;;4.53;1.70;;;12.50;99.90;;;;;;4954635;29;20054;-90
2023/04/14 10:02:20;;;;;;;13.50;2.10;;;12.30;99.90;;;;;;4954607;29;20034;-91
2023/04/14 10:05:07;;;;;;;8.40;1.98;;;11.60;99.90;;;;;;4954569;29;20027;-90
2023/04/14 10:07:55;;;;;;;13.48;1.50;;;11.70;99.90;;;;;;4954648;29;20023;-89
2023/04/14 10:10:21;;;;;;;5.95;1.63;;;12.30;99.90;;;;;;4956480;29;20434;-90
2023/04/14 10:13:06;;;;;;;8.48;2.03;;;11.80;99.90;;;;;;4962359;29;20020;-90
2023/04/14 10:15:32;;;;;;;10.35;2.28;;;12.40;99.90;;;;;;4968279;29;20024;-90
2023/04/14 10:17:58;;;;;;;8.40;2.10;;;13.10;99.90;;;;;;4970229;29;20029;-90
2023/04/14 10:20:45;;;;;;;11.38;2.00;;;12.70;99.90;;;;;;4962158;28;20046;-90
2023/04/14 10:23:11;;;;;;;6.05;1.67;;;11.40;99.90;;;;;;4960651;29;20027;-88
2023/04/14 10:26:02;;;;;;;64.88;5.38;;;12.80;99.90;;;;;;4958760;28;20059;-91
2023/04/14 10:28:37;;;;;;;12.40;2.53;;;11.20;99.90;;;;;;4959540;29;20042;-93
2023/04/14 10:31:07;;;;;;;11.25;1.50;;;12.00;99.90;;;;;;4958519;29;20023;-90
2023/04/14 10:33:36;;;;;;;2.55;1.50;;;13.00;99.90;;;;;;4958973;29;20031;-91
2023/04/14 10:36:25;;;;;;;7.00;1.80;;;12.60;99.90;;;;;;4958435;29;20035;-88
2023/04/14 10:39:19;;;;;;;6.50;1.67;;;13.00;99.90;;;;;;4958538;29;20043;-89
2023/04/14 10:41:46;;;;;;;3.42;1.85;;;12.30;99.90;;;;;;4958244;29;20023;-89
2023/04/14 10:44:35;;;;;;;4.60;1.80;;;13.00;99.90;;;;;;4972760;28;20027;-89
2023/04/14 10:47:23;;;;;;;8.32;1.98;;;12.20;99.90;;;;;;4962571;29;20031;-90
2023/04/14 10:49:49;;;;;;;3.65;1.75;;;11.90;99.90;;;;;;4958211;29;20032;-88
2023/04/14 10:52:32;;;;;;;6.03;1.80;;;12.60;99.90;;;;;;4957377;29;20019;-89
2023/04/14 10:55:06;;;;;;;5.80;1.60;;;13.00;99.90;;;;;;4957199;29;20078;-89
2023/04/14 10:57:48;;;;;;;3.85;1.65;;;12.20;99.90;;;;;;4957639;29;20027;-90
2023/04/14 11:00:40;;;;;;;5.68;1.77;;;12.80;99.90;;;;;;4957273;29;20142;-90
2023/04/14 11:03:30;;;;;;;3.95;1.80;;;12.40;99.90;;;;;;4957048;29;20020;-89
2023/04/14 11:05:56;;;;;;;5.95;2.17;;;12.10;99.90;;;;;;4957820;29;20150;-89
2023/04/14 11:08:48;;;;;;;6.35;1.95;;;13.40;99.90;;;;;;4956245;29;20156;-89
2023/04/14 11:11:27;;;;;;;6.90;1.75;;;12.50;99.90;;;;;;4955280;29;20035;-88
2023/04/14 11:14:24;;;;;;;3.33;1.65;;;13.10;99.90;;;;;;4955793;29;20027;-88
2023/04/14 11:16:50;;;;;;;7.80;2.72;;;12.10;99.90;;;;;;4955642;29;20718;-88
2023/04/14 11:19:32;;;;;;;3.67;1.52;;;14.00;99.90;;;;;;4956397;29;20050;-91
2023/04/14 11:21:58;;;;;;;4.28;2.25;;;13.50;99.90;;;;;;4954049;29;20073;-88
2023/04/14 11:24:24;;;;;;;6.45;2.15;;;12.50;99.90;;;;;;4953782;28;20055;-89
2023/04/14 11:26:56;;;;;;;3.40;1.58;;;12.70;99.90;;;;;;4956003;29;20475;-88
2023/04/14 11:29:22;;;;;;;2.53;1.67;;;12.70;99.90;;;;;;4956384;29;20027;-89
2023/04/14 11:32:01;;;;;;;17.92;2.20;;;13.10;99.90;;;;;;4955045;28;20117;-89
2023/04/14 11:34:27;;;;;;;8.52;1.88;;;12.70;99.90;;;;;;4956814;29;20099;-89
2023/04/14 11:36:53;;;;;;;4.93;1.60;;;12.80;99.90;;;;;;4956199;29;20499;-89
2023/04/14 11:39:19;;;;;;;4.32;1.90;;;13.50;99.90;;;;;;4956497;29;20044;-88
2023/04/14 11:41:46;;;;;;;2.95;1.42;;;12.80;99.90;;;;;;4957157;29;20027;-90
2023/04/14 11:44:17;;;;;;;3.30;1.75;;;12.90;99.90;;;;;;4956686;29;20055;-89
2023/04/14 11:46:43;;;;;;;4.93;2.00;;;12.90;99.90;;;;;;4957061;29;20087;-89
2023/04/14 11:49:09;;;;;;;7.78;1.73;;;13.00;99.90;;;;;;4938869;29;20031;-89
2023/04/14 11:51:40;;;;;;;5.05;1.73;;;13.00;99.90;;;;;;4951204;29;20087;-89
2023/04/14 11:54:06;;;;;;;5.50;1.70;;;13.60;99.90;;;;;;4956292;29;20042;-90
2023/04/14 11:56:32;;;;;;;4.25;1.88;;;12.50;99.90;;;;;;4956525;29;20031;-89
2023/04/14 11:59:19;;;;;;;4.82;1.50;;;13.10;99.90;;;;;;4956711;29;20035;-89
2023/04/14 12:01:49;;;;;;;4.53;1.70;;;13.00;99.90;;;;;;4956908;29;20030;-90
2023/04/14 12:04:26;;;;;;;;;;;;;;;;;;;;;
2023/04/14 12:07:25;;;;;;;10.52;1.80;;;14.00;99.90;;;;;;4962216;29;20098;-89
2023/04/14 12:10:10;;;;;;;4.18;1.60;;;14.10;99.90;;;;;;4957528;29;20031;-91
2023/04/14 12:12:35;;;;;;;4.30;1.65;;;13.00;99.90;;;;;;4956005;29;20031;-89
2023/04/14 12:15:02;;;;;;;3.80;1.60;;;13.10;99.90;;;;;;4956033;29;20028;-89
2023/04/14 12:17:28;;;;;;;4.10;1.25;;;14.40;99.90;;;;;;4956228;29;20027;-88
2023/04/14 12:20:02;;;;;;;3.42;1.45;;;13.30;99.90;;;;;;4954899;28;20039;-88
2023/04/14 12:22:29;;;;;;;5.05;1.33;;;13.50;99.90;;;;;;4936842;29;20027;-89
2023/04/14 12:25:27;;;;;;;3.42;1.55;;;14.00;99.90;;;;;;4936882;29;20060;-93
2023/04/14 12:28:16;;;;;;;3.63;1.65;;;13.30;99.90;;;;;;4938067;29;20028;-90
2023/04/14 12:31:08;;;;;;;4.07;1.33;;;13.30;99.90;;;;;;4937091;29;20458;-88
2023/04/14 12:33:34;;;;;;;6.20;1.20;;;12.80;99.90;;;;;;4937951;29;20535;-87
2023/04/14 12:36:19;;;;;;;6.82;1.75;;;13.30;99.90;;;;;;4937089;29;20063;-87
2023/04/14 12:38:47;;;;;;;2.15;1.15;;;13.40;99.90;;;;;;4938192;29;20032;-91
2023/04/14 12:41:37;;;;;;;2.80;1.40;;;13.40;99.90;;;;;;4938867;29;20054;-90
2023/04/14 12:44:24;;;;;;;5.90;1.88;;;13.00;99.90;;;;;;4956279;28;20026;-88
2023/04/14 12:46:51;;;;;;;2.10;1.23;;;12.50;99.90;;;;;;4955504;29;20106;-89
2023/04/14 12:49:38;;;;;;;3.95;1.70;;;14.00;99.90;;;;;;4956294;29;20042;-89
2023/04/14 12:52:06;;;;;;;3.67;1.80;;;14.00;99.90;;;;;;4965953;29;20471;-91
2023/04/14 12:54:50;;;;;;;5.30;2.45;;;14.00;99.90;;;;;;4967192;29;20039;-89
2023/04/14 12:57:18;;;;;;;15.63;2.53;;;15.00;99.90;;;;;;4956657;29;20023;-90
2023/04/14 12:59:44;;;;;;;4.63;1.67;;;12.90;99.90;;;;;;4955682;29;20478;-90
2023/04/14 13:02:29;;;;;;;3.08;1.33;;;14.30;99.90;;;;;;4955676;29;20054;-90
2023/04/14 13:04:57;;;;;;;6.50;1.60;;;13.80;99.90;;;;;;4954460;29;20027;-88
2023/04/14 13:07:23;;;;;;;5.55;1.38;;;14.70;99.90;;;;;;4952795;29;20028;-89
2023/04/14 13:10:01;;;;;;;3.15;1.38;;;15.00;99.90;;;;;;4952094;29;20559;-88